KFZY

Oswego County Airport

Fulton, New York, USA
METAR KFZY 172054Z AUTO 05004KT 10SM CLR M07/M11 A3023 RMK AO2 SLP247 T10671111 58012
Observed Flight Rules
Dec-17 @ 20:54 UTC (31 minutes ago) Visual Flight Rules
Wind Visibility Clouds
50° at 4 knots 10 miles
  • Clear skies
Temperatures Readings
Current -7°C / 19°F
Dewpoint -11°C / 12°F
Humidity 73%
Altimeter 30.23" Hg
Pressure 1024.7 hPa
Elevation 138
METAR KFZY 172054Z AUTO 05004KT 10SM CLR M07/M11 A3023 RMK AO2 SLP247 T10671111 58012
Observed Flight Rules
Dec-17 @ 20:54 UTC
(31 minutes ago)
VFR
Wind Visibility
50° at 4 knots 10 miles
Clouds
  • Clear skies
Temperature Dewpoint
-7°C / 19°F -11°C / 12°F
Humidity Altimeter Pressure
73% 30.23" Hg 1024.7 hPa